Time,TemperatureF,DewpointF,PressureIn,WindDirection,WindDirectionDegrees,WindSpeedMPH,WindSpeedGustMPH,Humidity,HourlyPrecipIn,Conditions,Clouds,dailyrainin,SoftwareType,DateUTC
2013-05-13 00:03:00,68.0,-99.9,29.98,North,-999,-999.0,-999.0,-999,-99.99,,,-99.99,,2013-05-13 04:03:00,
2013-05-13 00:12:00,68.0,-99.9,29.98,North,9,13.0,15.0,-999,-99.99,,,-99.99,,2013-05-13 04:12:00,
2013-05-13 00:23:00,67.0,-99.9,29.98,North,-999,-999.0,-999.0,-999,-99.99,,,-99.99,,2013-05-13 04:23:00,
2013-05-13 00:33:00,-999.0,-99.9,29.99,North,8,12.0,15.0,-999,-99.99,,,-99.99,,2013-05-13 04:33:00,
2013-05-13 00:42:00,67.0,-99.9,29.99,North,-999,-999.0,-999.0,-999,-99.99,,,-99.99,,2013-05-13 04:42:00,
2013-05-13 00:53:00,-999.0,-99.9,29.99,North,11,15.0,19.0,-999,-99.99,,,-99.99,,2013-05-13 04:53:00,
2013-05-13 01:02:00,67.0,-99.9,29.99,North,-999,-999.0,-999.0,-999,-99.99,,,-99.99,,2013-05-13 05:02:00,
2013-05-13 01:12:00,67.0,-99.9,29.99,North,-999,-999.0,-999.0,-999,-99.99,,,-99.99,,2013-05-13 05:12:00,
2013-05-13 01:22:00,-999.0,-99.9,30.00,North,10,15.0,17.0,-999,-99.99,,,-99.99,,2013-05-13 05:22:00,
2013-05-13 01:32:00,65.0,-99.9,30.00,North,-999,-999.0,-999.0,-999,-99.99,,,-99.99,,2013-05-13 05:32:00,
2013-05-13 01:42:00,-999.0,-99.9,30.00,NNE,15,10.0,15.0,-999,-99.99,,,-99.99,,2013-05-13 05:42:00,
2013-05-13 01:52:00,-999.0,-99.9,30.00,North,11,12.0,13.0,-999,-99.99,,,-99.99,,2013-05-13 05:52:00,
2013-05-13 02:01:00,-999.0,-99.9,30.00,North,9,12.0,15.0,-999,-99.99,,,-99.99,,2013-05-13 06:01:00,
2013-05-13 02:12:00,65.0,-99.9,30.00,North,-999,-999.0,-999.0,-999,-99.99,,,-99.99,,2013-05-13 06:12:00,
2013-05-13 02:22:00,-999.0,-99.9,30.00,North,10,11.0,15.0,-999,-99.99,,,-99.99,,2013-05-13 06:22:00,
2013-05-13 02:32:00,-999.0,-99.9,29.99,NNE,15,11.0,14.0,-999,-99.99,,,-99.99,,2013-05-13 06:32:00,
2013-05-13 02:42:00,64.0,-99.9,29.99,North,-999,-999.0,-999.0,-999,-99.99,,,-99.99,,2013-05-13 06:42:00,
2013-05-13 02:52:00,-999.0,-99.9,29.99,NNE,15,10.0,14.0,-999,-99.99,,,-99.99,,2013-05-13 06:52:00,
2013-05-13 03:01:00,63.0,-99.9,29.99,North,-999,-999.0,-999.0,-999,-99.99,,,-99.99,,2013-05-13 07:01:00,
2013-05-13 03:11:00,-999.0,-99.9,29.98,North,10,9.0,12.0,-999,-99.99,,,-99.99,,2013-05-13 07:11:00,
2013-05-13 03:22:00,-999.0,-99.9,29.98,North,8,10.0,13.0,-999,-99.99,,,-99.99,,2013-05-13 07:22:00,
2013-05-13 03:32:00,-999.0,-99.9,29.99,North,3,12.0,15.0,-999,-99.99,,,-99.99,,2013-05-13 07:32:00,
2013-05-13 03:42:00,63.0,-99.9,29.99,North,9,12.0,16.0,-999,-99.99,,,-99.99,,2013-05-13 07:42:00,
2013-05-13 03:52:00,-999.0,-99.9,29.99,North,353,9.0,14.0,-999,-99.99,,,-99.99,,2013-05-13 07:52:00,
2013-05-13 04:02:00,61.0,-99.9,29.99,North,-999,-999.0,-999.0,-999,-99.99,,,-99.99,,2013-05-13 08:02:00,
2013-05-13 04:11:00,-999.0,-99.9,29.99,North,349,12.0,16.0,-999,-99.99,,,-99.99,,2013-05-13 08:11:00,
2013-05-13 04:22:00,62.0,-99.9,29.99,North,-999,-999.0,-999.0,-999,-99.99,,,-99.99,,2013-05-13 08:22:00,
2013-05-13 04:32:00,62.0,-99.9,29.99,North,-999,-999.0,-999.0,-999,-99.99,,,-99.99,,2013-05-13 08:32:00,
2013-05-13 04:42:00,61.0,-99.9,29.99,North,-999,-999.0,-999.0,-999,-99.99,,,-99.99,,2013-05-13 08:42:00,
2013-05-13 04:52:00,-999.0,-99.9,29.99,North,0,14.0,17.0,-999,-99.99,,,-99.99,,2013-05-13 08:52:00,
2013-05-13 05:01:00,-999.0,-99.9,29.99,North,4,14.0,16.0,-999,-99.99,,,-99.99,,2013-05-13 09:01:00,
2013-05-13 05:11:00,61.0,-99.9,29.99,North,356,13.0,18.0,-999,-99.99,,,-99.99,,2013-05-13 09:11:00,
2013-05-13 05:22:00,-999.0,-99.9,29.99,North,354,12.0,16.0,-999,-99.99,,,-99.99,,2013-05-13 09:22:00,
2013-05-13 05:33:00,61.0,-99.9,30.00,North,-999,-999.0,-999.0,-999,-99.99,,,-99.99,,2013-05-13 09:33:00,
2013-05-13 05:42:00,60.0,-99.9,30.00,North,-999,-999.0,-999.0,-999,-99.99,,,-99.99,,2013-05-13 09:42:00,
2013-05-13 05:52:00,60.0,-99.9,30.00,North,-999,-999.0,-999.0,-999,-99.99,,,-99.99,,2013-05-13 09:52:00,
2013-05-13 06:03:00,60.0,-99.9,30.01,North,-999,-999.0,-999.0,-999,-99.99,,,-99.99,,2013-05-13 10:03:00,
2013-05-13 06:12:00,-999.0,-99.9,30.01,North,356,13.0,15.0,-999,-99.99,,,-99.99,,2013-05-13 10:12:00,
2013-05-13 06:22:00,-999.0,-99.9,30.02,NNW,348,9.0,15.0,-999,-99.99,,,-99.99,,2013-05-13 10:22:00,
2013-05-13 06:33:00,-999.0,-99.9,30.01,North,351,13.0,16.0,-999,-99.99,,,-99.99,,2013-05-13 10:33:00,
2013-05-13 06:43:00,59.0,-99.9,30.02,North,352,11.0,17.0,-999,-99.99,,,-99.99,,2013-05-13 10:43:00,
2013-05-13 06:53:00,59.0,-99.9,30.02,North,-999,-999.0,-999.0,-999,-99.99,,,-99.99,,2013-05-13 10:53:00,
2013-05-13 07:03:00,59.0,-99.9,30.03,North,-999,-999.0,-999.0,-999,-99.99,,,-99.99,,2013-05-13 11:03:00,
2013-05-13 07:12:00,60.0,-99.9,30.03,North,-999,-999.0,-999.0,-999,-99.99,,,-99.99,,2013-05-13 11:12:00,
2013-05-13 07:22:00,60.0,-99.9,30.03,North,-999,-999.0,-999.0,-999,-99.99,,,-99.99,,2013-05-13 11:22:00,
2013-05-13 07:32:00,60.0,-99.9,30.03,North,-999,-999.0,-999.0,-999,-99.99,,,-99.99,,2013-05-13 11:32:00,
2013-05-13 07:42:00,61.0,-99.9,30.03,North,-999,-999.0,-999.0,-999,-99.99,,,-99.99,,2013-05-13 11:42:00,
2013-05-13 07:52:00,61.0,-99.9,30.03,North,-999,-999.0,-999.0,-999,-99.99,,,-99.99,,2013-05-13 11:52:00,
2013-05-13 08:02:00,-999.0,-99.9,30.03,NNE,17,10.0,15.0,-999,-99.99,,,-99.99,,2013-05-13 12:02:00,
2013-05-13 08:12:00,62.0,-99.9,30.03,North,-999,-999.0,-999.0,-999,-99.99,,,-99.99,,2013-05-13 12:12:00,
2013-05-13 08:21:00,63.0,-99.9,30.03,North,-999,-999.0,-999.0,-999,-99.99,,,-99.99,,2013-05-13 12:21:00,
2013-05-13 08:32:00,-999.0,-99.9,30.04,NNE,29,11.0,17.0,-999,-99.99,,,-99.99,,2013-05-13 12:32:00,
2013-05-13 08:42:00,-999.0,-99.9,30.04,NE,37,11.0,16.0,-999,-99.99,,,-99.99,,2013-05-13 12:42:00,
2013-05-13 08:52:00,64.0,-99.9,30.04,North,-999,-999.0,-999.0,-999,-99.99,,,-99.99,,2013-05-13 12:52:00,
2013-05-13 09:01:00,-999.0,-99.9,30.04,NNE,24,15.0,19.0,-999,-99.99,,,-99.99,,2013-05-13 13:01:00,
2013-05-13 09:11:00,64.0,-99.9,30.03,North,-999,-999.0,-999.0,-999,-99.99,,,-99.99,,2013-05-13 13:11:00,
2013-05-13 09:22:00,-999.0,-99.9,30.03,NNE,33,15.0,20.0,-999,-99.99,,,-99.99,,2013-05-13 13:22:00,
2013-05-13 09:32:00,-999.0,-99.9,30.04,NE,37,15.0,21.0,-999,-99.99,,,-99.99,,2013-05-13 13:32:00,
2013-05-13 09:42:00,-999.0,-99.9,30.04,NE,37,15.0,21.0,-999,-99.99,,,-99.99,,2013-05-13 13:42:00,
2013-05-13 09:52:00,-999.0,-99.9,30.04,NE,37,15.0,21.0,-999,-99.99,,,-99.99,,2013-05-13 13:52:00,
2013-05-13 10:02:00,-999.0,-99.9,30.04,NE,37,15.0,21.0,-999,-99.99,,,-99.99,,2013-05-13 14:02:00,
2013-05-13 10:11:00,63.0,-99.9,30.04,NNE,17,17.0,23.0,-999,-99.99,,,-99.99,,2013-05-13 14:11:00,
2013-05-13 10:22:00,63.0,-99.9,30.04,North,-999,-999.0,-999.0,-999,-99.99,,,-99.99,,2013-05-13 14:22:00,
2013-05-13 10:32:00,-999.0,-99.9,30.04,NNE,17,17.0,28.0,-999,-99.99,,,-99.99,,2013-05-13 14:32:00,
2013-05-13 10:42:00,-999.0,-99.9,30.05,NNE,18,15.0,24.0,-999,-99.99,,,-99.99,,2013-05-13 14:42:00,
2013-05-13 10:52:00,-999.0,-99.9,30.05,NNE,16,20.0,25.0,-999,-99.99,,,-99.99,,2013-05-13 14:52:00,
2013-05-13 11:01:00,63.0,-99.9,30.05,North,-999,-999.0,-999.0,-999,-99.99,,,-99.99,,2013-05-13 15:01:00,
2013-05-13 11:11:00,63.0,-99.9,30.05,North,-999,-999.0,-999.0,-999,-99.99,,,-99.99,,2013-05-13 15:11:00,
2013-05-13 11:22:00,63.0,-99.9,30.05,North,-999,-999.0,-999.0,-999,-99.99,,,-99.99,,2013-05-13 15:22:00,
2013-05-13 11:32:00,63.0,-99.9,30.05,North,-999,-999.0,-999.0,-999,-99.99,,,-99.99,,2013-05-13 15:32:00,
2013-05-13 14:43:00,65.0,-99.9,30.04,North,352,11.0,18.0,-999,-99.99,,,-99.99,,2013-05-13 18:43:00,
2013-05-13 14:52:00,-999.0,-99.9,30.04,North,9,15.0,23.0,-999,-99.99,,,-99.99,,2013-05-13 18:52:00,
2013-05-13 15:01:00,-999.0,-99.9,30.04,North,352,14.0,21.0,-999,-99.99,,,-99.99,,2013-05-13 19:01:00,
2013-05-13 15:12:00,65.0,-99.9,30.04,North,-999,-999.0,-999.0,-999,-99.99,,,-99.99,,2013-05-13 19:12:00,
2013-05-13 15:22:00,-999.0,-99.9,30.03,North,359,13.0,17.0,-999,-99.99,,,-99.99,,2013-05-13 19:22:00,
2013-05-13 15:33:00,64.0,-99.9,30.03,North,-999,-999.0,-999.0,-999,-99.99,,,-99.99,,2013-05-13 19:33:00,
2013-05-13 15:44:00,-999.0,-99.9,30.03,North,349,11.0,15.0,-999,-99.99,,,-99.99,,2013-05-13 19:44:00,
2013-05-13 15:53:00,65.0,-99.9,30.02,North,11,16.0,18.0,-999,-99.99,,,-99.99,,2013-05-13 19:53:00,
2013-05-13 16:02:00,65.0,-99.9,30.02,North,-999,-999.0,-999.0,-999,-99.99,,,-99.99,,2013-05-13 20:02:00,
2013-05-13 16:11:00,65.0,-99.9,30.01,North,7,12.0,19.0,-999,-99.99,,,-99.99,,2013-05-13 20:11:00,
2013-05-13 16:23:00,-999.0,-99.9,30.01,North,349,13.0,17.0,-999,-99.99,,,-99.99,,2013-05-13 20:23:00,
2013-05-13 16:34:00,-999.0,-99.9,30.01,North,358,10.0,16.0,-999,-99.99,,,-99.99,,2013-05-13 20:34:00,
2013-05-13 16:44:00,-999.0,-99.9,30.00,North,8,8.0,11.0,-999,-99.99,,,-99.99,,2013-05-13 20:44:00,
2013-05-13 16:53:00,66.0,-99.9,30.00,North,-999,-999.0,-999.0,-999,-99.99,,,-99.99,,2013-05-13 20:53:00,
2013-05-13 17:03:00,67.0,-99.9,30.00,North,-999,-999.0,-999.0,-999,-99.99,,,-99.99,,2013-05-13 21:03:00,
2013-05-13 17:14:00,-999.0,-99.9,30.00,NNW,342,12.0,18.0,-999,-99.99,,,-99.99,,2013-05-13 21:14:00,
2013-05-13 17:23:00,-999.0,-99.9,30.00,NNW,337,9.0,20.0,-999,-99.99,,,-99.99,,2013-05-13 21:23:00,
2013-05-13 17:34:00,68.0,-99.9,30.00,North,-999,-999.0,-999.0,-999,-99.99,,,-99.99,,2013-05-13 21:34:00,
2013-05-13 17:44:00,67.0,-99.9,30.00,North,356,11.0,15.0,-999,-99.99,,,-99.99,,2013-05-13 21:44:00,
2013-05-13 17:53:00,67.0,-99.9,30.00,North,-999,-999.0,-999.0,-999,-99.99,,,-99.99,,2013-05-13 21:53:00,
2013-05-13 18:03:00,-999.0,-99.9,30.00,North,350,11.0,18.0,-999,-99.99,,,-99.99,,2013-05-13 22:03:00,
2013-05-13 18:12:00,67.0,-99.9,30.00,North,-999,-999.0,-999.0,-999,-99.99,,,-99.99,,2013-05-13 22:12:00,
2013-05-13 18:23:00,-999.0,-99.9,30.00,North,2,12.0,15.0,-999,-99.99,,,-99.99,,2013-05-13 22:23:00,
2013-05-13 18:32:00,67.0,-99.9,30.00,North,-999,-999.0,-999.0,-999,-99.99,,,-99.99,,2013-05-13 22:32:00,
2013-05-13 18:43:00,-999.0,-99.9,30.00,NNW,346,11.0,18.0,-999,-99.99,,,-99.99,,2013-05-13 22:43:00,
2013-05-13 18:52:00,-999.0,-99.9,30.00,NNW,338,9.0,15.0,-999,-99.99,,,-99.99,,2013-05-13 22:52:00,
2013-05-13 19:02:00,67.0,-99.9,30.01,North,-999,-999.0,-999.0,-999,-99.99,,,-99.99,,2013-05-13 23:02:00,
2013-05-13 19:13:00,67.0,-99.9,30.01,NNW,340,8.0,16.0,-999,-99.99,,,-99.99,,2013-05-13 23:13:00,
2013-05-13 19:23:00,67.0,-99.9,30.01,North,-999,-999.0,-999.0,-999,-99.99,,,-99.99,,2013-05-13 23:23:00,
2013-05-13 19:34:00,-999.0,-99.9,30.02,NNW,327,11.0,17.0,-999,-99.99,,,-99.99,,2013-05-13 23:34:00,
2013-05-13 19:42:00,-999.0,-99.9,30.02,NNW,334,9.0,16.0,-999,-99.99,,,-99.99,,2013-05-13 23:42:00,
2013-05-13 19:54:00,-999.0,-99.9,30.02,NNW,338,9.0,16.0,-999,-99.99,,,-99.99,,2013-05-13 23:54:00,
2013-05-13 20:03:00,-999.0,-99.9,30.03,NNW,337,11.0,18.0,-999,-99.99,,,-99.99,,2013-05-14 00:03:00,
2013-05-13 20:13:00,66.0,-99.9,30.03,North,-999,-999.0,-999.0,-999,-99.99,,,-99.99,,2013-05-14 00:13:00,
2013-05-13 20:22:00,-999.0,-99.9,30.04,NNW,337,10.0,15.0,-999,-99.99,,,-99.99,,2013-05-14 00:22:00,
2013-05-13 20:32:00,-999.0,-99.9,30.05,NNW,345,14.0,19.0,-999,-99.99,,,-99.99,,2013-05-14 00:32:00,
2013-05-13 20:42:00,64.0,-99.9,30.06,NNW,347,10.0,18.0,-999,-99.99,,,-99.99,,2013-05-14 00:42:00,
2013-05-13 20:52:00,-999.0,-99.9,30.06,NNW,347,13.0,17.0,-999,-99.99,,,-99.99,,2013-05-14 00:52:00,
2013-05-13 21:02:00,64.0,-99.9,30.07,North,-999,-999.0,-999.0,-999,-99.99,,,-99.99,,2013-05-14 01:02:00,
2013-05-13 21:11:00,64.0,-99.9,30.07,North,-999,-999.0,-999.0,-999,-99.99,,,-99.99,,2013-05-14 01:11:00,
2013-05-13 21:21:00,63.0,-99.9,30.08,North,-999,-999.0,-999.0,-999,-99.99,,,-99.99,,2013-05-14 01:21:00,
2013-05-13 21:32:00,-999.0,-99.9,30.08,North,0,12.0,16.0,-999,-99.99,,,-99.99,,2013-05-14 01:32:00,
2013-05-13 21:43:00,63.0,-99.9,30.09,North,-999,-999.0,-999.0,-999,-99.99,,,-99.99,,2013-05-14 01:43:00,
2013-05-13 21:53:00,63.0,-99.9,30.10,North,-999,-999.0,-999.0,-999,-99.99,,,-99.99,,2013-05-14 01:53:00,
2013-05-13 22:03:00,-999.0,-99.9,30.10,North,9,9.0,12.0,-999,-99.99,,,-99.99,,2013-05-14 02:03:00,
2013-05-13 22:12:00,62.0,-99.9,30.11,North,-999,-999.0,-999.0,-999,-99.99,,,-99.99,,2013-05-14 02:12:00,
2013-05-13 22:22:00,-999.0,-99.9,30.11,NNE,13,6.0,9.0,-999,-99.99,,,-99.99,,2013-05-14 02:22:00,
2013-05-13 22:32:00,61.0,-99.9,30.12,North,-999,-999.0,-999.0,-999,-99.99,,,-99.99,,2013-05-14 02:32:00,
2013-05-13 22:42:00,61.0,-99.9,30.12,NNE,19,3.0,6.0,-999,-99.99,,,-99.99,,2013-05-14 02:42:00,
2013-05-13 22:52:00,61.0,-99.9,30.12,North,-999,-999.0,-999.0,-999,-99.99,,,-99.99,,2013-05-14 02:52:00,
2013-05-13 23:01:00,60.0,-99.9,30.12,North,-999,-999.0,-999.0,-999,-99.99,,,-99.99,,2013-05-14 03:01:00,
2013-05-13 23:11:00,60.0,-99.9,30.12,North,-999,-999.0,-999.0,-999,-99.99,,,-99.99,,2013-05-14 03:11:00,
2013-05-13 23:22:00,59.0,-99.9,30.13,North,-999,-999.0,-999.0,-999,-99.99,,,-99.99,,2013-05-14 03:22:00,
2013-05-13 23:33:00,-999.0,-99.9,30.13,NE,44,3.0,4.0,-999,-99.99,,,-99.99,,2013-05-14 03:33:00,
2013-05-13 23:43:00,59.0,-99.9,30.13,North,-999,-999.0,-999.0,-999,-99.99,,,-99.99,,2013-05-14 03:43:00,
2013-05-13 23:53:00,59.0,-99.9,30.13,North,-999,-999.0,-999.0,-999,-99.99,,,-99.99,,2013-05-14 03:53:00,